createdAt,value
2023-04-03T00:00:34.733Z,98122.56
2023-04-03T00:03:01.697Z,98124.00
2023-04-03T00:05:28.390Z,98116.44
2023-04-03T00:07:55.060Z,98115.25
2023-04-03T00:10:21.692Z,98115.19
2023-04-03T00:12:48.324Z,98116.13
2023-04-03T00:15:15.028Z,98119.00
2023-04-03T00:17:42.378Z,98118.22
2023-04-03T00:20:11.945Z,98111.94
2023-04-03T00:22:38.676Z,98116.19
2023-04-03T00:25:06.195Z,98125.06
2023-04-03T00:27:32.818Z,98122.31
2023-04-03T00:29:59.448Z,98111.88
2023-04-03T00:32:26.119Z,98126.44
2023-04-03T00:34:52.786Z,98122.47
2023-04-03T00:37:19.520Z,98121.94
2023-04-03T00:39:46.398Z,98122.63
2023-04-03T00:42:13.412Z,98126.00
2023-04-03T00:45:01.719Z,98120.53
2023-04-03T00:47:29.172Z,98114.38
2023-04-03T00:49:56.116Z,98111.41
2023-04-03T00:52:26.966Z,98116.09
2023-04-03T00:55:03.191Z,98111.91
2023-04-03T00:57:32.216Z,98114.84
2023-04-03T01:00:05.770Z,98111.22
2023-04-03T01:02:32.496Z,98117.06
2023-04-03T01:04:59.241Z,98112.22
2023-04-03T01:07:30.761Z,98117.19
2023-04-03T01:10:00.771Z,98117.19
2023-04-03T01:12:33.558Z,98115.03
2023-04-03T01:15:03.959Z,98120.31
2023-04-03T01:17:37.061Z,98120.59
2023-04-03T01:20:41.860Z,98130.81
2023-04-03T01:23:37.720Z,98126.75
2023-04-03T01:26:04.392Z,98132.91
2023-04-03T01:28:34.768Z,98136.56
2023-04-03T01:31:57.134Z,98137.56
2023-04-03T01:34:24.634Z,98142.78
2023-04-03T01:36:52.351Z,98140.63
2023-04-03T01:39:19.855Z,98135.66
2023-04-03T01:41:46.688Z,98139.25
2023-04-03T01:44:13.785Z,98141.09
2023-04-03T01:46:40.632Z,98143.94
2023-04-03T01:49:07.265Z,98144.94
2023-04-03T01:51:34.530Z,98136.53
2023-04-03T01:54:01.287Z,98140.19
2023-04-03T01:56:27.929Z,98139.91
2023-04-03T01:58:54.602Z,98140.16
2023-04-03T02:01:22.206Z,98138.38
2023-04-03T02:03:49.027Z,98137.13
2023-04-03T02:06:15.960Z,98136.66
2023-04-03T02:08:42.791Z,98142.31
2023-04-03T02:11:09.507Z,98137.22
2023-04-03T02:13:36.228Z,98137.88
2023-04-03T02:16:11.009Z,98135.19
2023-04-03T02:18:38.323Z,98136.16
2023-04-03T02:21:05.056Z,98137.88
2023-04-03T02:23:31.780Z,98137.88
2023-04-03T02:26:09.908Z,98134.66
2023-04-03T02:28:36.939Z,98144.56
2023-04-03T02:31:04.808Z,98138.66
2023-04-03T02:33:31.816Z,98138.41
2023-04-03T02:35:59.572Z,98145.34
2023-04-03T02:38:26.465Z,98146.63
2023-04-03T02:40:53.393Z,98146.34
2023-04-03T02:43:20.167Z,98143.41
2023-04-03T02:45:46.826Z,98141.63
2023-04-03T02:48:13.522Z,98139.19
2023-04-03T02:50:40.250Z,98138.66
2023-04-03T02:53:06.904Z,98139.13
2023-04-03T02:55:33.534Z,98144.00
2023-04-03T02:58:00.389Z,98143.69
2023-04-03T03:00:27.025Z,98143.69
2023-04-03T03:02:54.176Z,98146.13
2023-04-03T03:05:20.914Z,98141.44
2023-04-03T03:07:47.571Z,98145.06
2023-04-03T03:10:14.455Z,98137.91
2023-04-03T03:12:41.516Z,98145.56
2023-04-03T03:15:08.621Z,98150.97
2023-04-03T03:17:36.791Z,98142.63
2023-04-03T03:20:05.016Z,98145.06
2023-04-03T03:22:31.921Z,98144.59
2023-04-03T03:24:59.816Z,98142.63
2023-04-03T03:27:29.304Z,98139.97
2023-04-03T03:29:55.913Z,98138.47
2023-04-03T03:32:22.516Z,98143.59
2023-04-03T03:34:49.132Z,98143.09
2023-04-03T03:37:15.850Z,98138.25
2023-04-03T03:39:42.433Z,98145.91
2023-04-03T03:42:09.233Z,98143.72
2023-04-03T03:44:35.795Z,98145.22
2023-04-03T03:47:02.388Z,98139.34
2023-04-03T03:49:29.018Z,98138.31
2023-04-03T03:51:56.638Z,98144.59
2023-04-03T03:54:23.173Z,98143.06
2023-04-03T03:56:49.832Z,98136.63
2023-04-03T03:59:17.548Z,98144.94
2023-04-03T04:01:44.351Z,98141.75
2023-04-03T04:04:13.141Z,98144.81
2023-04-03T04:06:39.783Z,98147.09
2023-04-03T04:09:06.430Z,98145.91
2023-04-03T04:11:34.360Z,98138.81
2023-04-03T04:14:01.016Z,98146.41
2023-04-03T04:16:27.960Z,98149.38
2023-04-03T04:18:54.879Z,98142.25
2023-04-03T04:21:21.475Z,98149.63
2023-04-03T04:23:48.150Z,98148.16
2023-04-03T04:26:14.925Z,98149.88
2023-04-03T04:28:41.526Z,98145.44
2023-04-03T04:31:08.185Z,98150.38
2023-04-03T04:33:34.923Z,98157.78
2023-04-03T04:36:01.671Z,98160.25
2023-04-03T04:38:28.294Z,98154.34
2023-04-03T04:40:54.981Z,98152.13
2023-04-03T04:43:21.611Z,98152.63
2023-04-03T04:45:48.415Z,98160.94
2023-04-03T04:48:15.080Z,98163.19
2023-04-03T04:50:41.715Z,98164.88
2023-04-03T04:53:09.619Z,98166.84
2023-04-03T04:55:36.406Z,98154.53
2023-04-03T04:58:03.183Z,98160.19
2023-04-03T05:00:29.816Z,98165.34
2023-04-03T05:02:56.530Z,98167.84
2023-04-03T05:05:23.616Z,98171.75
2023-04-03T05:07:50.228Z,98173.72
2023-04-03T05:10:16.933Z,98175.41
2023-04-03T05:12:43.577Z,98176.16
2023-04-03T05:15:10.676Z,98173.66
2023-04-03T05:17:37.418Z,98178.53
2023-04-03T05:20:05.986Z,98178.03
2023-04-03T05:22:33.011Z,98182.41
2023-04-03T05:24:59.576Z,98182.97
2023-04-03T05:27:26.205Z,98186.94
2023-04-03T05:29:53.824Z,98174.66
2023-04-03T05:32:21.296Z,98182.75
2023-04-03T05:34:48.189Z,98187.13
2023-04-03T05:37:14.903Z,98184.38
2023-04-03T05:39:41.938Z,98191.53
2023-04-03T05:42:08.900Z,98195.97
2023-04-03T05:44:36.148Z,98202.56
2023-04-03T05:47:03.540Z,98203.78
2023-04-03T05:49:30.419Z,98204.25
2023-04-03T05:51:57.124Z,98200.81
2023-04-03T05:54:27.720Z,98207.31
2023-04-03T05:56:54.799Z,98210.69
2023-04-03T05:59:22.105Z,98205.50
2023-04-03T06:01:49.397Z,98209.94
2023-04-03T06:04:16.209Z,98205.75
2023-04-03T06:06:54.874Z,98208.47
2023-04-03T06:09:25.489Z,98212.63
2023-04-03T06:11:52.895Z,98209.66
2023-04-03T06:14:20.107Z,98212.88
2023-04-03T06:16:46.760Z,98216.25
2023-04-03T06:19:13.588Z,98219.28
2023-04-03T06:21:40.643Z,98221.44
2023-04-03T06:24:08.314Z,98215.53
2023-04-03T06:26:35.373Z,98228.00
2023-04-03T06:29:03.345Z,98227.03
2023-04-03T06:31:30.812Z,98221.09
2023-04-03T06:33:57.505Z,98227.75
2023-04-03T06:36:24.275Z,98222.38
2023-04-03T06:38:51.031Z,98228.31
2023-04-03T06:41:18.182Z,98226.81
2023-04-03T06:43:45.909Z,98229.78
2023-04-03T06:46:21.561Z,98226.31
2023-04-03T06:48:51.140Z,98225.78
2023-04-03T06:51:28.879Z,98215.84
2023-04-03T06:53:57.732Z,98217.84
2023-04-03T06:56:26.110Z,98211.72
2023-04-03T06:58:55.369Z,98205.44
2023-04-03T07:01:29.036Z,98220.66
2023-04-03T07:03:56.458Z,98215.16
2023-04-03T07:06:28.047Z,98213.56
2023-04-03T07:08:55.519Z,98228.09
2023-04-03T07:11:22.252Z,98221.13
2023-04-03T07:13:49.321Z,98226.66
2023-04-03T07:16:16.299Z,98225.91
2023-04-03T07:18:43.014Z,98232.53
2023-04-03T07:21:09.637Z,98243.00
2023-04-03T07:23:36.350Z,98245.09
2023-04-03T07:26:03.350Z,98235.16
2023-04-03T07:28:30.732Z,98238.66
2023-04-03T07:31:03.644Z,98234.19
2023-04-03T07:33:30.624Z,98230.47
2023-04-03T07:35:57.252Z,98239.63
2023-04-03T07:38:23.999Z,98237.88
2023-04-03T07:40:51.928Z,98240.75
2023-04-03T07:43:19.584Z,98234.31
2023-04-03T07:45:46.308Z,98236.84
2023-04-03T07:48:13.529Z,98241.56
2023-04-03T07:50:43.522Z,98246.69
2023-04-03T07:53:10.546Z,98251.44
2023-04-03T07:55:43.820Z,98259.25
2023-04-03T07:58:12.367Z,98251.56
2023-04-03T08:00:39.733Z,98257.94
2023-04-03T08:03:09.572Z,98256.69
2023-04-03T08:05:42.334Z,98258.41
2023-04-03T08:08:10.255Z,98264.31
2023-04-03T08:10:36.881Z,98260.13
2023-04-03T08:13:04.281Z,98254.00
2023-04-03T08:15:32.464Z,98261.50
2023-04-03T08:17:59.848Z,98256.19
2023-04-03T08:20:26.737Z,98257.25
2023-04-03T08:22:53.680Z,98260.28
2023-04-03T08:25:20.430Z,98267.69
2023-04-03T08:27:47.558Z,98261.75
2023-04-03T08:30:14.719Z,98263.78
2023-04-03T08:32:43.517Z,98268.06
2023-04-03T08:35:10.684Z,98266.66
2023-04-03T08:37:38.313Z,98271.59
2023-04-03T08:40:07.399Z,98264.91
2023-04-03T08:43:18.774Z,98268.59
2023-04-03T08:46:07.429Z,98266.41
2023-04-03T08:48:42.068Z,98271.34
2023-04-03T08:51:18.118Z,98274.31
2023-04-03T08:53:57.332Z,98275.28
2023-04-03T08:56:25.628Z,98279.50
2023-04-03T08:58:57.844Z,98286.56
2023-04-03T09:01:30.979Z,98289.09
2023-04-03T09:03:57.860Z,98284.69
2023-04-03T09:06:33.706Z,98287.75
2023-04-03T09:09:27.971Z,98292.44
2023-04-03T09:12:24.964Z,98283.16
2023-04-03T09:15:37.623Z,98299.41
2023-04-03T09:18:40.882Z,98295.34
2023-04-03T09:21:25.760Z,98295.63
2023-04-03T09:23:59.275Z,98309.78
2023-04-03T09:26:31.814Z,98297.09
2023-04-03T09:29:01.819Z,98298.69
2023-04-03T09:31:35.423Z,98292.81
2023-04-03T09:34:08.072Z,98295.13
2023-04-03T09:36:46.957Z,98309.53
2023-04-03T09:39:28.517Z,98296.81
2023-04-03T09:42:04.159Z,98296.47
2023-04-03T09:44:37.006Z,98297.50
2023-04-03T09:47:25.928Z,98289.56
2023-04-03T09:50:20.950Z,98296.47
2023-04-03T09:52:50.332Z,98301.38
2023-04-03T09:55:29.698Z,98290.28
2023-04-03T09:58:02.675Z,98295.09
2023-04-03T10:00:40.045Z,98299.63
2023-04-03T10:03:29.782Z,98288.72
2023-04-03T10:05:58.683Z,98292.16
2023-04-03T10:08:31.993Z,98287.03
2023-04-03T10:11:28.196Z,98284.94
2023-04-03T10:13:57.819Z,98293.66
2023-04-03T10:16:37.560Z,98292.94
2023-04-03T10:19:35.056Z,98296.19
2023-04-03T10:22:38.034Z,98291.19
2023-04-03T10:25:55.175Z,98293.09
2023-04-03T10:29:06.526Z,98288.38
2023-04-03T10:32:05.099Z,98284.97
2023-04-03T10:34:37.090Z,98286.28
2023-04-03T10:37:33.216Z,98288.16
2023-04-03T10:40:32.242Z,98293.44
2023-04-03T10:43:42.225Z,98291.09
2023-04-03T10:46:39.730Z,98303.31
2023-04-03T10:49:35.524Z,98285.66
2023-04-03T10:52:19.655Z,98293.38
2023-04-03T10:55:26.431Z,98294.16
2023-04-03T10:57:57.491Z,98287.63
2023-04-03T11:00:42.874Z,98289.63
2023-04-03T11:03:44.948Z,98279.44
2023-04-03T11:06:15.705Z,98279.81
2023-04-03T11:08:57.732Z,98278.91
2023-04-03T11:11:31.743Z,98276.03
2023-04-03T11:14:17.115Z,98265.63
2023-04-03T11:16:54.167Z,98271.75
2023-04-03T11:19:27.459Z,98262.13
2023-04-03T11:21:59.181Z,98268.81
2023-04-03T11:24:33.201Z,98263.44
2023-04-03T11:27:04.839Z,98258.75
2023-04-03T11:29:37.690Z,98253.50
2023-04-03T11:32:30.509Z,98253.97
2023-04-03T11:35:00.723Z,98255.03
2023-04-03T11:37:47.171Z,98249.75
2023-04-03T11:40:25.624Z,98247.03
2023-04-03T11:43:07.129Z,98243.44
2023-04-03T11:45:51.023Z,98259.91
2023-04-03T11:48:24.975Z,98250.97
2023-04-03T11:50:53.017Z,98255.75
2023-04-03T11:53:55.097Z,98252.16
2023-04-03T11:56:34.840Z,98259.16
2023-04-03T11:59:28.490Z,98257.63
2023-04-03T12:02:01.555Z,98252.25
2023-04-03T12:04:28.740Z,98246.03
2023-04-03T12:07:11.209Z,98252.16
2023-04-03T12:09:59.057Z,98244.59
2023-04-03T12:12:31.680Z,98251.88
2023-04-03T12:15:13.316Z,98252.91
2023-04-03T12:17:39.981Z,98250.75
2023-04-03T12:20:44.833Z,98244.09
2023-04-03T12:23:35.580Z,98244.16
2023-04-03T12:26:23.920Z,98246.56
2023-04-03T12:28:54.207Z,98247.00
2023-04-03T12:31:26.285Z,98250.41
2023-04-03T12:34:18.800Z,98245.78
2023-04-03T12:37:22.886Z,98238.16
2023-04-03T12:39:56.569Z,98238.97
2023-04-03T12:43:02.257Z,98243.56
2023-04-03T12:46:03.230Z,98240.75
2023-04-03T12:48:31.991Z,98234.59
2023-04-03T12:51:00.477Z,98237.22
2023-04-03T12:53:37.071Z,98240.75
2023-04-03T12:56:40.469Z,98228.56
2023-04-03T12:59:23.298Z,98241.41
2023-04-03T13:02:17.123Z,98243.41
2023-04-03T13:04:43.773Z,98222.84
2023-04-03T13:07:33.166Z,98227.03
2023-04-03T13:10:28.856Z,98230.53
2023-04-03T13:13:08.418Z,98235.41
2023-04-03T13:15:49.746Z,98227.59
2023-04-03T13:18:34.494Z,98240.25
2023-04-03T13:21:26.794Z,98234.22
2023-04-03T13:24:15.899Z,98233.69
2023-04-03T13:26:43.707Z,98233.47
2023-04-03T13:29:29.975Z,98232.16
2023-04-03T13:31:58.925Z,98224.84
2023-04-03T13:34:28.840Z,98234.44
2023-04-03T13:36:58.446Z,98229.84
2023-04-03T13:39:27.068Z,98226.34
2023-04-03T13:41:59.492Z,98225.72
2023-04-03T13:44:37.539Z,98229.16
2023-04-03T13:47:24.505Z,98225.38
2023-04-03T13:50:05.390Z,98223.31
2023-04-03T13:52:36.888Z,98226.28
2023-04-03T13:55:34.564Z,98221.69
2023-04-03T13:58:23.266Z,98222.41
2023-04-03T14:01:07.154Z,98216.19
2023-04-03T14:03:53.607Z,98221.31
2023-04-03T14:06:20.337Z,98210.19
2023-04-03T14:08:47.968Z,98215.78
2023-04-03T14:11:21.791Z,98220.13
2023-04-03T14:13:49.523Z,98219.81
2023-04-03T14:16:22.176Z,98217.66
2023-04-03T14:18:50.811Z,98209.94
2023-04-03T14:21:18.909Z,98205.03
2023-04-03T14:23:46.486Z,98200.50
2023-04-03T14:26:17.304Z,98206.47
2023-04-03T14:28:45.425Z,98205.50
2023-04-03T14:31:13.482Z,98208.41
2023-04-03T14:33:41.019Z,98212.47
2023-04-03T14:36:26.364Z,98215.97
2023-04-03T14:38:57.081Z,98212.56
2023-04-03T14:41:25.865Z,98213.00
2023-04-03T14:43:53.582Z,98229.59
2023-04-03T14:46:38.649Z,98221.03
2023-04-03T14:49:24.756Z,98214.59
2023-04-03T14:51:51.590Z,98216.09
2023-04-03T14:54:26.298Z,98216.47
2023-04-03T14:56:53.503Z,98217.47
2023-04-03T14:59:22.451Z,98214.47
2023-04-03T15:01:50.032Z,98217.38
2023-04-03T15:04:19.118Z,98219.81
2023-04-03T15:06:46.382Z,98220.25
2023-04-03T15:09:28.401Z,98237.03
2023-04-03T15:11:56.270Z,98227.75
2023-04-03T15:14:35.936Z,98231.25
2023-04-03T15:17:06.087Z,98225.84
2023-04-03T15:19:41.968Z,98229.00
2023-04-03T15:22:17.126Z,98230.66
2023-04-03T15:24:44.467Z,98233.56
2023-04-03T15:27:12.671Z,98225.78
2023-04-03T15:29:40.798Z,98227.94
2023-04-03T15:32:07.549Z,98222.84
2023-04-03T15:34:34.687Z,98220.75
2023-04-03T15:37:02.090Z,98224.03
2023-04-03T15:39:28.977Z,98232.34
2023-04-03T15:41:56.259Z,98229.41
2023-04-03T15:44:23.015Z,98227.81
2023-04-03T15:46:52.201Z,98231.34
2023-04-03T15:49:21.856Z,98234.03
2023-04-03T15:51:48.589Z,98228.72
2023-04-03T15:54:15.584Z,98232.88
2023-04-03T15:56:42.123Z,98231.72
2023-04-03T15:59:09.194Z,98229.72
2023-04-03T16:01:37.329Z,98231.16
2023-04-03T16:04:04.984Z,98229.53
2023-04-03T16:06:32.809Z,98231.44
2023-04-03T16:08:59.435Z,98239.28
2023-04-03T16:11:28.247Z,98235.94
2023-04-03T16:13:55.867Z,98240.41
2023-04-03T16:16:23.192Z,98240.88
2023-04-03T16:18:50.695Z,98245.03
2023-04-03T16:21:20.720Z,98242.38
2023-04-03T16:23:47.461Z,98242.97
2023-04-03T16:26:15.210Z,98248.47
2023-04-03T16:28:41.903Z,98245.06
2023-04-03T16:31:09.192Z,98247.03
2023-04-03T16:33:36.418Z,98246.53
2023-04-03T16:36:04.524Z,98251.47
2023-04-03T16:38:31.238Z,98257.84
2023-04-03T16:41:00.332Z,98256.44
2023-04-03T16:43:27.920Z,98255.47
2023-04-03T16:45:54.675Z,98267.56
2023-04-03T16:48:21.945Z,98266.34
2023-04-03T16:50:49.986Z,98273.69
2023-04-03T16:53:16.585Z,98271.75
2023-04-03T16:55:43.269Z,98274.44
2023-04-03T16:58:11.124Z,98282.06
2023-04-03T17:00:38.188Z,98284.25
2023-04-03T17:03:07.366Z,98284.03
2023-04-03T17:05:34.097Z,98279.13
2023-04-03T17:08:01.970Z,98278.63
2023-04-03T17:10:28.809Z,98281.59
2023-04-03T17:12:55.588Z,98281.59
2023-04-03T17:15:22.755Z,98279.59
2023-04-03T17:17:52.152Z,98283.03
2023-04-03T17:20:19.103Z,98287.66
2023-04-03T17:22:46.055Z,98281.78
2023-04-03T17:25:14.130Z,98280.31
2023-04-03T17:27:40.897Z,98285.00
2023-04-03T17:30:08.553Z,98286.94
2023-04-03T17:32:35.501Z,98287.66
2023-04-03T17:35:02.074Z,98297.25
2023-04-03T17:37:28.681Z,98289.38
2023-04-03T17:39:55.372Z,98293.31
2023-04-03T17:42:21.960Z,98289.38
2023-04-03T17:44:48.621Z,98304.09
2023-04-03T17:47:15.377Z,98297.69
2023-04-03T17:49:42.116Z,98295.97
2023-04-03T17:52:08.768Z,98302.88
2023-04-03T17:54:35.453Z,98308.97
2023-04-03T17:57:04.470Z,98312.41
2023-04-03T17:59:31.708Z,98315.09
2023-04-03T18:01:58.513Z,98319.03
2023-04-03T18:04:25.467Z,98318.56
2023-04-03T18:06:55.362Z,98323.94
2023-04-03T18:09:27.069Z,98328.88
2023-04-03T18:11:55.873Z,98333.06
2023-04-03T18:14:25.583Z,98331.84
2023-04-03T18:16:52.391Z,98330.63
2023-04-03T18:19:23.403Z,98338.72
2023-04-03T18:21:52.414Z,98343.41
2023-04-03T18:24:20.687Z,98346.06
2023-04-03T18:26:52.278Z,98347.84
2023-04-03T18:29:19.150Z,98348.06
2023-04-03T18:31:51.133Z,98353.69
2023-04-03T18:34:17.777Z,98351.25
2023-04-03T18:36:46.564Z,98354.38
2023-04-03T18:39:13.533Z,98363.22
2023-04-03T18:41:40.864Z,98359.53
2023-04-03T18:44:12.812Z,98369.84
2023-04-03T18:46:40.393Z,98369.56
2023-04-03T18:49:09.562Z,98370.53
2023-04-03T18:51:38.941Z,98375.22
2023-04-03T18:54:06.187Z,98369.53
2023-04-03T18:56:32.819Z,98367.34
2023-04-03T18:58:59.478Z,98363.91
2023-04-03T19:01:26.260Z,98373.91
2023-04-03T19:03:53.030Z,98374.16
2023-04-03T19:06:19.707Z,98374.38
2023-04-03T19:08:47.121Z,98378.03
2023-04-03T19:11:13.827Z,98381.22
2023-04-03T19:13:46.893Z,98386.13
2023-04-03T19:16:27.353Z,98377.75
2023-04-03T19:18:54.104Z,98386.53
2023-04-03T19:21:21.156Z,98382.34
2023-04-03T19:23:48.743Z,98392.13
2023-04-03T19:26:15.544Z,98386.22
2023-04-03T19:28:42.648Z,98387.41
2023-04-03T19:31:14.599Z,98392.56
2023-04-03T19:33:41.700Z,98395.22
2023-04-03T19:36:09.539Z,98395.22
2023-04-03T19:38:36.427Z,98399.41
2023-04-03T19:41:08.957Z,98407.13
2023-04-03T19:43:35.490Z,98401.13
2023-04-03T19:46:02.310Z,98396.50
2023-04-03T19:48:29.586Z,98398.53
2023-04-03T19:50:56.229Z,98400.72
2023-04-03T19:53:28.986Z,98404.97
2023-04-03T19:55:57.239Z,98403.00
2023-04-03T19:58:27.823Z,98412.78
2023-04-03T20:00:55.507Z,98412.06
2023-04-03T20:03:24.236Z,98413.53
2023-04-03T20:05:51.246Z,98412.56
2023-04-03T20:08:18.201Z,98415.75
2023-04-03T20:10:45.022Z,98418.41
2023-04-03T20:13:12.210Z,98413.25
2023-04-03T20:15:41.015Z,98415.47
2023-04-03T20:18:09.717Z,98416.91
2023-04-03T20:20:42.045Z,98419.06
2023-04-03T20:23:11.297Z,98414.53
2023-04-03T20:26:09.514Z,98413.13
2023-04-03T20:28:41.173Z,98412.91
2023-04-03T20:31:09.223Z,98407.28
2023-04-03T20:33:37.232Z,98414.78
2023-04-03T20:36:04.239Z,98411.31
2023-04-03T20:38:30.910Z,98415.47
2023-04-03T20:40:57.625Z,98410.25
2023-04-03T20:43:25.409Z,98404.13
2023-04-03T20:45:52.489Z,98405.09
2023-04-03T20:48:19.361Z,98408.31
2023-04-03T20:50:46.593Z,98401.28
2023-04-03T20:53:14.917Z,98396.63
2023-04-03T20:55:42.220Z,98400.78
2023-04-03T20:58:08.908Z,98401.81
2023-04-03T21:00:37.607Z,98402.06
2023-04-03T21:03:04.685Z,98400.84
2023-04-03T21:05:33.331Z,98404.09
2023-04-03T21:08:37.710Z,98402.44
2023-04-03T21:11:41.883Z,98404.47
2023-04-03T21:14:46.890Z,98404.47
2023-04-03T21:17:13.441Z,98397.59
2023-04-03T21:19:46.133Z,98409.09
2023-04-03T21:22:13.950Z,98403.47
2023-04-03T21:24:41.083Z,98407.38
2023-04-03T21:27:08.484Z,98402.22
2023-04-03T21:29:35.272Z,98404.69
2023-04-03T21:32:02.115Z,98401.00
2023-04-03T21:34:30.978Z,98398.75
2023-04-03T21:37:02.887Z,98393.88
2023-04-03T21:39:29.728Z,98396.59
2023-04-03T21:41:56.668Z,98395.91
2023-04-03T21:44:24.206Z,98395.63
2023-04-03T21:46:54.888Z,98386.53
2023-04-03T21:49:23.143Z,98389.22
2023-04-03T21:51:51.841Z,98400.25
2023-04-03T21:54:18.787Z,98393.63
2023-04-03T21:56:47.940Z,98391.63
2023-04-03T21:59:17.389Z,98390.56
2023-04-03T22:01:44.141Z,98388.81
2023-04-03T22:04:11.604Z,98389.50
2023-04-03T22:06:38.330Z,98382.69
2023-04-03T22:09:05.442Z,98381.41
2023-04-03T22:11:32.245Z,98379.38
2023-04-03T22:13:59.827Z,98378.63
2023-04-03T22:16:26.587Z,98374.88
2023-04-03T22:18:56.163Z,98376.03
2023-04-03T22:21:23.287Z,98372.66
2023-04-03T22:23:49.953Z,98370.88
2023-04-03T22:26:16.658Z,98366.03
2023-04-03T22:28:45.593Z,98367.81
2023-04-03T22:31:16.326Z,98363.41
2023-04-03T22:33:44.331Z,98359.94
2023-04-03T22:36:12.066Z,98369.31
2023-04-03T22:38:39.880Z,98364.25
2023-04-03T22:41:08.171Z,98352.75
2023-04-03T22:43:36.533Z,98354.97
2023-04-03T22:46:05.521Z,98351.81
2023-04-03T22:48:32.172Z,98346.47
2023-04-03T22:51:01.015Z,98340.81
2023-04-03T22:53:28.635Z,98344.25
2023-04-03T22:55:59.695Z,98346.44
2023-04-03T22:58:26.838Z,98345.81
2023-04-03T23:01:05.245Z,98350.88
2023-04-03T23:03:32.286Z,98350.34
2023-04-03T23:05:58.956Z,98348.09
2023-04-03T23:08:25.807Z,98339.78
2023-04-03T23:10:56.562Z,98339.25
2023-04-03T23:13:24.262Z,98351.59
2023-04-03T23:15:58.568Z,98339.81
2023-04-03T23:18:26.777Z,98349.44
2023-04-03T23:20:54.866Z,98348.44
2023-04-03T23:23:22.500Z,98342.63
2023-04-03T23:25:59.956Z,98344.59
2023-04-03T23:28:27.822Z,98341.16
2023-04-03T23:31:02.206Z,98340.63
2023-04-03T23:33:30.511Z,98346.97
2023-04-03T23:35:58.521Z,98341.88
2023-04-03T23:38:26.111Z,98342.66
2023-04-03T23:40:52.762Z,98341.72
2023-04-03T23:43:19.404Z,98344.22
2023-04-03T23:45:46.103Z,98337.63
2023-04-03T23:48:12.747Z,98338.34
2023-04-03T23:50:39.593Z,98338.53
2023-04-03T23:53:06.505Z,98333.13
2023-04-03T23:55:33.169Z,98331.66
2023-04-03T23:57:59.798Z,98341.72
